createdAt,value
2023-02-27T00:00:46.514Z,80.60
2023-02-27T00:01:46.512Z,80.68
2023-02-27T00:02:46.512Z,80.40
2023-02-27T00:03:46.561Z,80.36
2023-02-27T00:04:46.471Z,81.02
2023-02-27T00:05:46.485Z,80.92
2023-02-27T00:06:46.478Z,81.09
2023-02-27T00:07:46.459Z,80.99
2023-02-27T00:08:46.523Z,80.88
2023-02-27T00:09:46.445Z,80.71
2023-02-27T00:10:46.452Z,81.09
2023-02-27T00:11:46.426Z,81.30
2023-02-27T00:12:46.418Z,81.55
2023-02-27T00:13:46.408Z,81.30
2023-02-27T00:14:46.407Z,81.41
2023-02-27T00:15:46.442Z,81.02
2023-02-27T00:16:46.408Z,80.68
2023-02-27T00:17:46.392Z,80.88
2023-02-27T00:18:46.386Z,82.07
2023-02-27T00:19:46.395Z,81.73
2023-02-27T00:20:46.362Z,81.20
2023-02-27T00:21:46.372Z,80.99
2023-02-27T00:22:46.360Z,82.14
2023-02-27T00:23:46.363Z,82.25
2023-02-27T00:24:46.362Z,82.29
2023-02-27T00:25:46.331Z,82.14
2023-02-27T00:26:46.336Z,81.93
2023-02-27T00:27:46.318Z,81.73
2023-02-27T00:28:46.331Z,81.51
2023-02-27T00:29:46.351Z,82.14
2023-02-27T00:30:46.346Z,81.93
2023-02-27T00:31:46.352Z,81.97
2023-02-27T00:32:46.291Z,82.07
2023-02-27T00:33:46.276Z,82.56
2023-02-27T00:34:46.302Z,82.35
2023-02-27T00:35:46.264Z,82.56
2023-02-27T00:36:46.264Z,81.87
2023-02-27T00:37:46.247Z,82.18
2023-02-27T00:38:46.261Z,82.04
2023-02-27T00:39:46.255Z,82.56
2023-02-27T00:40:46.238Z,82.60
2023-02-27T00:41:46.222Z,83.02
2023-02-27T00:42:46.251Z,82.29
2023-02-27T00:43:46.218Z,82.60
2023-02-27T00:44:46.226Z,82.29
2023-02-27T00:45:46.210Z,82.50
2023-02-27T00:46:46.250Z,82.50
2023-02-27T00:47:46.198Z,83.13
2023-02-27T00:48:46.194Z,83.48
2023-02-27T00:49:46.180Z,82.92
2023-02-27T00:50:46.168Z,82.92
2023-02-27T00:51:46.183Z,83.37
2023-02-27T00:52:46.162Z,82.95
2023-02-27T00:53:46.148Z,83.65
2023-02-27T00:54:46.151Z,84.11
2023-02-27T00:55:46.162Z,83.90
2023-02-27T00:56:46.133Z,83.48
2023-02-27T00:57:46.173Z,83.37
2023-02-27T00:58:46.125Z,83.44
2023-02-27T00:59:46.120Z,83.59
2023-02-27T01:00:46.193Z,83.48
2023-02-27T01:01:46.096Z,84.08
2023-02-27T01:02:46.128Z,84.42
2023-02-27T01:03:46.088Z,84.32
2023-02-27T01:04:46.082Z,83.86
2023-02-27T01:05:46.083Z,84.08
2023-02-27T01:06:46.105Z,84.39
2023-02-27T01:07:46.065Z,84.18
2023-02-27T01:08:46.063Z,84.64
2023-02-27T01:09:46.059Z,84.08
2023-02-27T01:10:46.040Z,84.32
2023-02-27T01:11:46.089Z,84.32
2023-02-27T01:12:46.047Z,84.11
2023-02-27T01:13:46.025Z,83.69
2023-02-27T01:14:46.008Z,84.01
2023-02-27T01:15:46.005Z,84.39
2023-02-27T01:16:46.057Z,83.34
2023-02-27T01:17:46.014Z,84.08
2023-02-27T01:18:45.996Z,84.08
2023-02-27T01:19:45.987Z,84.18
2023-02-27T01:20:46.042Z,84.28
2023-02-27T01:21:45.977Z,84.60
2023-02-27T01:22:45.971Z,84.22
2023-02-27T01:23:45.974Z,84.28
2023-02-27T01:24:45.957Z,84.08
2023-02-27T01:25:45.980Z,84.74
2023-02-27T01:26:45.948Z,84.81
2023-02-27T01:27:45.946Z,84.49
2023-02-27T01:28:45.935Z,84.49
2023-02-27T01:29:45.932Z,84.49
2023-02-27T01:30:45.931Z,84.70
2023-02-27T01:31:45.995Z,84.70
2023-02-27T01:32:45.954Z,84.28
2023-02-27T01:33:45.918Z,83.65
2023-02-27T01:34:45.901Z,84.18
2023-02-27T01:35:45.886Z,84.49
2023-02-27T01:36:45.883Z,84.18
2023-02-27T01:37:45.872Z,84.18
2023-02-27T01:38:45.877Z,84.18
2023-02-27T01:39:45.869Z,84.81
2023-02-27T01:40:45.856Z,84.49
2023-02-27T01:41:46.837Z,84.28
2023-02-27T01:42:45.833Z,84.08
2023-02-27T01:43:45.824Z,84.49
2023-02-27T01:44:45.829Z,84.81
2023-02-27T01:45:45.843Z,84.74
2023-02-27T01:46:45.815Z,84.84
2023-02-27T01:47:45.795Z,84.60
2023-02-27T01:48:46.796Z,84.70
2023-02-27T01:49:45.784Z,84.74
2023-02-27T01:50:45.789Z,84.28
2023-02-27T01:51:45.767Z,84.11
2023-02-27T01:52:45.784Z,84.53
2023-02-27T01:53:45.752Z,84.95
2023-02-27T01:54:45.756Z,85.06
2023-02-27T01:55:45.745Z,85.37
2023-02-27T01:56:45.748Z,85.06
2023-02-27T01:57:45.720Z,85.37
2023-02-27T01:58:45.725Z,85.27
2023-02-27T01:59:45.715Z,85.69
2023-02-27T02:00:45.724Z,85.58
2023-02-27T02:01:45.725Z,85.37
2023-02-27T02:02:45.700Z,85.33
2023-02-27T02:03:45.680Z,85.16
2023-02-27T02:04:45.675Z,84.95
2023-02-27T02:05:45.676Z,84.95
2023-02-27T02:06:45.665Z,84.84
2023-02-27T02:07:45.664Z,84.74
2023-02-27T02:08:45.650Z,84.22
2023-02-27T02:09:45.645Z,84.64
2023-02-27T02:10:46.661Z,83.90
2023-02-27T02:11:45.629Z,84.74
2023-02-27T02:12:45.617Z,84.95
2023-02-27T02:13:45.621Z,84.42
2023-02-27T02:14:45.612Z,84.64
2023-02-27T02:15:45.604Z,84.53
2023-02-27T02:16:45.660Z,84.64
2023-02-27T02:17:46.596Z,84.74
2023-02-27T02:18:45.629Z,84.74
2023-02-27T02:19:45.592Z,84.84
2023-02-27T02:20:45.592Z,84.64
2023-02-27T02:21:45.577Z,84.53
2023-02-27T02:22:45.564Z,84.74
2023-02-27T02:23:45.578Z,84.84
2023-02-27T02:24:45.548Z,84.74
2023-02-27T02:25:45.548Z,84.78
2023-02-27T02:26:45.535Z,84.78
2023-02-27T02:27:45.534Z,85.10
2023-02-27T02:28:45.523Z,85.83
2023-02-27T02:29:45.535Z,85.79
2023-02-27T02:30:45.540Z,85.83
2023-02-27T02:31:45.638Z,85.48
2023-02-27T02:32:45.632Z,85.27
2023-02-27T02:33:45.485Z,85.62
2023-02-27T02:34:45.499Z,85.73
2023-02-27T02:35:45.480Z,85.58
2023-02-27T02:36:45.498Z,85.83
2023-02-27T02:37:45.466Z,85.52
2023-02-27T02:38:45.487Z,85.73
2023-02-27T02:39:45.455Z,85.94
2023-02-27T02:40:45.444Z,85.83
2023-02-27T02:41:45.444Z,86.04
2023-02-27T02:42:45.426Z,86.15
2023-02-27T02:43:45.426Z,86.15
2023-02-27T02:44:45.420Z,86.25
2023-02-27T02:45:45.428Z,85.73
2023-02-27T02:46:45.456Z,85.62
2023-02-27T02:47:45.420Z,86.15
2023-02-27T02:48:45.397Z,86.11
2023-02-27T02:49:45.393Z,85.58
2023-02-27T02:50:45.389Z,85.52
2023-02-27T02:51:45.386Z,84.99
2023-02-27T02:52:45.387Z,84.89
2023-02-27T02:53:45.359Z,84.99
2023-02-27T02:54:45.344Z,85.31
2023-02-27T02:55:45.337Z,85.41
2023-02-27T02:56:45.390Z,85.20
2023-02-27T02:57:45.364Z,84.89
2023-02-27T02:58:45.342Z,84.78
2023-02-27T02:59:45.315Z,84.99
2023-02-27T03:00:45.315Z,85.10
2023-02-27T03:01:45.381Z,85.10
2023-02-27T03:02:45.302Z,84.67
2023-02-27T03:03:45.289Z,84.89
2023-02-27T03:04:45.340Z,84.89
2023-02-27T03:05:45.281Z,84.25
2023-02-27T03:06:45.266Z,84.57
2023-02-27T03:07:45.312Z,85.13
2023-02-27T03:08:45.257Z,85.41
2023-02-27T03:09:45.249Z,85.52
2023-02-27T03:10:46.253Z,85.52
2023-02-27T03:11:45.248Z,85.83
2023-02-27T03:12:45.252Z,85.83
2023-02-27T03:13:45.240Z,85.83
2023-02-27T03:14:45.224Z,85.73
2023-02-27T03:15:45.277Z,85.73
2023-02-27T03:16:45.213Z,85.62
2023-02-27T03:17:45.208Z,85.73
2023-02-27T03:18:45.217Z,85.77
2023-02-27T03:19:45.183Z,86.25
2023-02-27T03:20:45.181Z,86.08
2023-02-27T03:21:45.163Z,86.29
2023-02-27T03:22:45.174Z,86.08
2023-02-27T03:23:45.175Z,85.97
2023-02-27T03:24:45.154Z,86.19
2023-02-27T03:25:45.140Z,86.40
2023-02-27T03:26:45.129Z,86.61
2023-02-27T03:27:45.116Z,86.93
2023-02-27T03:28:45.139Z,86.86
2023-02-27T03:29:45.116Z,86.93
2023-02-27T03:30:46.150Z,87.13
2023-02-27T03:31:45.191Z,87.24
2023-02-27T03:32:45.089Z,86.93
2023-02-27T03:33:45.100Z,87.24
2023-02-27T03:34:45.211Z,87.13
2023-02-27T03:35:45.070Z,87.35
2023-02-27T03:36:45.075Z,86.93
2023-02-27T03:37:45.054Z,86.93
2023-02-27T03:38:45.044Z,86.61
2023-02-27T03:39:45.073Z,86.88
2023-02-27T03:40:45.051Z,86.61
2023-02-27T03:41:45.035Z,86.99
2023-02-27T03:42:45.021Z,86.88
2023-02-27T03:43:45.012Z,86.88
2023-02-27T03:44:45.030Z,87.10
2023-02-27T03:45:45.010Z,86.99
2023-02-27T03:46:45.071Z,86.57
2023-02-27T03:47:44.993Z,86.61
2023-02-27T03:48:44.981Z,86.57
2023-02-27T03:49:44.980Z,86.46
2023-02-27T03:50:44.989Z,86.61
2023-02-27T03:51:44.958Z,86.57
2023-02-27T03:52:44.956Z,86.57
2023-02-27T03:53:44.952Z,86.88
2023-02-27T03:54:44.944Z,86.57
2023-02-27T03:55:44.957Z,86.78
2023-02-27T03:56:44.931Z,86.99
2023-02-27T03:57:44.934Z,86.99
2023-02-27T03:58:44.913Z,86.99
2023-02-27T03:59:44.908Z,86.57
2023-02-27T04:00:44.942Z,86.36
2023-02-27T04:01:44.949Z,86.68
2023-02-27T04:02:44.959Z,86.46
2023-02-27T04:03:44.890Z,86.46
2023-02-27T04:04:44.910Z,86.46
2023-02-27T04:05:44.869Z,86.88
2023-02-27T04:06:44.869Z,86.99
2023-02-27T04:07:44.849Z,86.88
2023-02-27T04:08:45.040Z,86.68
2023-02-27T04:09:44.854Z,86.57
2023-02-27T04:10:44.834Z,86.57
2023-02-27T04:11:44.836Z,86.99
2023-02-27T04:12:45.963Z,86.57
2023-02-27T04:13:45.824Z,86.99
2023-02-27T04:14:44.814Z,86.99
2023-02-27T04:15:44.829Z,86.88
2023-02-27T04:16:44.796Z,86.99
2023-02-27T04:17:44.828Z,86.78
2023-02-27T04:18:44.787Z,87.10
2023-02-27T04:19:44.773Z,87.24
2023-02-27T04:20:44.773Z,87.30
2023-02-27T04:21:44.764Z,87.20
2023-02-27T04:22:44.748Z,86.99
2023-02-27T04:23:44.778Z,87.41
2023-02-27T04:24:44.766Z,87.45
2023-02-27T04:25:44.758Z,87.30
2023-02-27T04:26:44.734Z,87.41
2023-02-27T04:27:44.734Z,87.62
2023-02-27T04:28:44.738Z,87.13
2023-02-27T04:29:44.729Z,87.20
2023-02-27T04:30:44.749Z,86.99
2023-02-27T04:31:44.876Z,86.88
2023-02-27T04:32:44.737Z,86.68
2023-02-27T04:33:44.681Z,86.99
2023-02-27T04:34:44.695Z,86.68
2023-02-27T04:35:44.686Z,86.46
2023-02-27T04:36:44.675Z,86.57
2023-02-27T04:37:44.656Z,86.57
2023-02-27T04:38:44.661Z,86.36
2023-02-27T04:39:44.656Z,86.36
2023-02-27T04:40:44.648Z,86.36
2023-02-27T04:41:44.669Z,86.25
2023-02-27T04:42:44.633Z,86.51
2023-02-27T04:43:44.620Z,86.57
2023-02-27T04:44:44.605Z,86.71
2023-02-27T04:45:44.633Z,86.71
2023-02-27T04:46:44.623Z,87.03
2023-02-27T04:47:44.585Z,86.88
2023-02-27T04:48:44.581Z,86.71
2023-02-27T04:49:44.578Z,86.78
2023-02-27T04:50:44.583Z,87.03
2023-02-27T04:51:44.562Z,87.10
2023-02-27T04:52:44.565Z,86.93
2023-02-27T04:53:44.549Z,86.93
2023-02-27T04:54:44.550Z,86.82
2023-02-27T04:55:45.535Z,86.93
2023-02-27T04:56:44.577Z,87.13
2023-02-27T04:57:44.525Z,87.10
2023-02-27T04:58:44.522Z,87.13
2023-02-27T04:59:44.522Z,86.99
2023-02-27T05:00:44.510Z,87.03
2023-02-27T05:01:44.532Z,87.52
2023-02-27T05:02:44.662Z,87.66
2023-02-27T05:03:44.488Z,87.10
2023-02-27T05:04:44.491Z,86.82
2023-02-27T05:05:44.468Z,86.71
2023-02-27T05:06:44.466Z,86.71
2023-02-27T05:07:44.457Z,86.19
2023-02-27T05:08:44.454Z,86.19
2023-02-27T05:09:44.474Z,86.61
2023-02-27T05:10:44.430Z,86.76
2023-02-27T05:11:44.437Z,86.96
2023-02-27T05:12:44.423Z,87.28
2023-02-27T05:13:44.413Z,87.18
2023-02-27T05:14:44.407Z,87.18
2023-02-27T05:15:44.470Z,87.55
2023-02-27T05:16:44.453Z,87.49
2023-02-27T05:17:44.410Z,87.74
2023-02-27T05:18:44.396Z,87.60
2023-02-27T05:19:44.385Z,87.60
2023-02-27T05:20:44.375Z,87.70
2023-02-27T05:21:44.376Z,87.28
2023-02-27T05:22:44.358Z,87.38
2023-02-27T05:23:44.341Z,87.70
2023-02-27T05:24:44.358Z,88.12
2023-02-27T05:25:44.388Z,87.87
2023-02-27T05:26:44.382Z,88.12
2023-02-27T05:27:44.338Z,87.70
2023-02-27T05:28:45.109Z,87.81
2023-02-27T05:29:44.312Z,87.81
2023-02-27T05:30:44.381Z,88.12
2023-02-27T05:31:44.345Z,87.60
2023-02-27T05:32:44.295Z,87.81
2023-02-27T05:33:44.290Z,88.23
2023-02-27T05:34:44.275Z,88.75
2023-02-27T05:35:44.298Z,88.75
2023-02-27T05:36:44.259Z,89.22
2023-02-27T05:37:44.257Z,88.96
2023-02-27T05:38:44.237Z,88.12
2023-02-27T05:39:44.254Z,88.75
2023-02-27T05:40:44.240Z,88.65
2023-02-27T05:41:44.242Z,89.07
2023-02-27T05:42:44.220Z,89.07
2023-02-27T05:43:44.214Z,88.79
2023-02-27T05:44:44.211Z,88.79
2023-02-27T05:45:44.240Z,88.96
2023-02-27T05:46:44.206Z,89.28
2023-02-27T05:47:44.187Z,89.49
2023-02-27T05:48:44.192Z,89.53
2023-02-27T05:49:44.174Z,89.39
2023-02-27T05:50:44.165Z,89.32
2023-02-27T05:51:44.148Z,88.75
2023-02-27T05:52:44.145Z,88.48
2023-02-27T05:53:44.162Z,89.39
2023-02-27T05:54:44.196Z,89.22
2023-02-27T05:55:44.142Z,89.49
2023-02-27T05:56:44.135Z,88.96
2023-02-27T05:57:44.124Z,88.54
2023-02-27T05:58:44.148Z,89.59
2023-02-27T05:59:44.137Z,88.96
2023-02-27T06:00:45.100Z,88.75
2023-02-27T06:01:46.218Z,88.75
2023-02-27T06:02:45.090Z,88.90
2023-02-27T06:03:44.134Z,88.86
2023-02-27T06:04:44.075Z,89.28
2023-02-27T06:05:44.063Z,88.75
2023-02-27T06:06:44.062Z,89.59
2023-02-27T06:07:44.056Z,88.92
2023-02-27T06:08:44.048Z,88.54
2023-02-27T06:09:44.062Z,89.07
2023-02-27T06:10:44.047Z,88.60
2023-02-27T06:11:44.043Z,88.44
2023-02-27T06:12:44.021Z,88.18
2023-02-27T06:13:44.016Z,87.87
2023-02-27T06:14:44.011Z,88.23
2023-02-27T06:15:43.994Z,88.12
2023-02-27T06:16:44.116Z,88.18
2023-02-27T06:17:43.989Z,88.54
2023-02-27T06:18:43.982Z,88.02
2023-02-27T06:19:43.972Z,87.91
2023-02-27T06:20:43.974Z,87.81
2023-02-27T06:21:43.988Z,87.70
2023-02-27T06:22:43.959Z,87.60
2023-02-27T06:23:43.947Z,87.18
2023-02-27T06:24:43.945Z,87.35
2023-02-27T06:25:43.931Z,87.55
2023-02-27T06:26:43.939Z,88.18
2023-02-27T06:27:43.919Z,87.76
2023-02-27T06:28:43.908Z,87.66
2023-02-27T06:29:43.907Z,87.76
2023-02-27T06:30:46.239Z,88.08
2023-02-27T06:31:44.945Z,87.81
2023-02-27T06:32:43.884Z,87.98
2023-02-27T06:33:43.881Z,87.98
2023-02-27T06:34:43.879Z,87.66
2023-02-27T06:35:43.866Z,88.15
2023-02-27T06:36:43.847Z,88.40
2023-02-27T06:37:43.863Z,88.08
2023-02-27T06:38:43.842Z,87.93
2023-02-27T06:39:43.860Z,87.58
2023-02-27T06:40:43.826Z,87.12
2023-02-27T06:41:43.813Z,86.87
2023-02-27T06:42:43.823Z,86.52
2023-02-27T06:43:43.809Z,85.53
2023-02-27T06:44:43.838Z,84.80
2023-02-27T06:45:43.804Z,84.66
2023-02-27T06:46:43.790Z,83.25
2023-02-27T06:47:43.874Z,83.11
2023-02-27T06:48:43.770Z,82.59
2023-02-27T06:49:43.756Z,80.35
2023-02-27T06:50:43.764Z,80.14
2023-02-27T06:51:45.103Z,80.24
2023-02-27T06:52:44.752Z,80.42
2023-02-27T06:53:43.733Z,80.17
2023-02-27T06:54:43.743Z,79.50
2023-02-27T06:55:43.721Z,79.02
2023-02-27T06:56:43.707Z,77.10
2023-02-27T06:57:43.716Z,76.65
2023-02-27T06:58:43.712Z,75.29
2023-02-27T06:59:43.701Z,74.98
2023-02-27T07:00:43.691Z,75.39
2023-02-27T07:01:43.759Z,74.63
2023-02-27T07:02:43.670Z,73.90
2023-02-27T07:03:43.685Z,74.11
2023-02-27T07:04:43.726Z,74.28
2023-02-27T07:05:43.654Z,74.18
2023-02-27T07:07:33.939Z,74.35
2023-02-27T07:07:44.635Z,73.59
2023-02-27T07:09:01.385Z,72.51
2023-02-27T07:09:44.633Z,72.27
2023-02-27T07:10:43.624Z,71.12
2023-02-27T07:11:44.620Z,72.41
2023-02-27T07:12:43.614Z,71.34
2023-02-27T07:13:43.632Z,70.13
2023-02-27T07:14:43.596Z,70.93
2023-02-27T07:15:43.622Z,69.62
2023-02-27T07:16:43.590Z,68.90
2023-02-27T07:17:43.576Z,68.15
2023-02-27T07:18:43.617Z,68.70
2023-02-27T07:19:43.560Z,63.50
2023-02-27T07:20:43.585Z,64.61
2023-02-27T07:21:43.551Z,66.17
2023-02-27T07:22:43.532Z,62.81
2023-02-27T07:23:44.773Z,58.45
2023-02-27T07:24:43.527Z,60.97
2023-02-27T07:25:43.545Z,56.90
2023-02-27T07:26:43.529Z,57.18
2023-02-27T07:27:43.516Z,56.23
2023-02-27T07:28:43.540Z,56.79
2023-02-27T07:29:43.500Z,54.51
2023-02-27T07:30:43.507Z,58.07
2023-02-27T07:31:43.548Z,55.49
2023-02-27T07:32:43.482Z,58.51
2023-02-27T07:33:43.466Z,56.64
2023-02-27T07:34:43.476Z,53.33
2023-02-27T07:35:43.482Z,51.67
2023-02-27T07:36:43.470Z,51.24
2023-02-27T07:37:43.445Z,51.42
2023-02-27T07:38:43.445Z,51.40
2023-02-27T07:39:43.459Z,50.45
2023-02-27T07:40:43.431Z,50.94
2023-02-27T07:41:43.449Z,51.53
2023-02-27T07:42:43.414Z,49.26
2023-02-27T07:43:43.407Z,50.95
2023-02-27T07:44:43.424Z,49.09
2023-02-27T07:45:43.383Z,48.99
2023-02-27T07:46:44.466Z,48.96
2023-02-27T07:47:43.447Z,49.17
2023-02-27T07:48:43.376Z,45.89
2023-02-27T07:49:43.373Z,48.28
2023-02-27T07:50:43.353Z,46.66
2023-02-27T07:51:43.381Z,47.22
2023-02-27T07:52:43.376Z,45.48
2023-02-27T07:53:43.339Z,47.10
2023-02-27T07:54:43.346Z,45.74
2023-02-27T07:55:43.332Z,44.10
2023-02-27T07:56:43.328Z,45.70
2023-02-27T07:57:43.336Z,43.04
2023-02-27T07:58:43.324Z,43.32
2023-02-27T07:59:43.306Z,42.60
2023-02-27T08:00:43.294Z,40.95
2023-02-27T08:01:43.289Z,40.86
2023-02-27T08:02:43.371Z,39.04
2023-02-27T08:03:43.279Z,41.06
2023-02-27T08:04:43.342Z,40.13
2023-02-27T08:05:43.254Z,39.62
2023-02-27T08:06:44.279Z,39.99
2023-02-27T08:07:43.293Z,37.16
2023-02-27T08:08:43.262Z,38.76
2023-02-27T08:09:43.251Z,38.54
2023-02-27T08:10:43.222Z,38.54
2023-02-27T08:11:43.228Z,36.93
2023-02-27T08:12:43.209Z,38.75
2023-02-27T08:13:59.626Z,36.20
2023-02-27T08:14:45.215Z,37.80
2023-02-27T08:15:43.201Z,38.99
2023-02-27T08:16:43.223Z,36.17
2023-02-27T08:17:43.177Z,35.97
2023-02-27T08:18:43.187Z,36.25
2023-02-27T08:19:43.163Z,33.42
2023-02-27T08:20:43.165Z,35.33
2023-02-27T08:21:43.141Z,33.91
2023-02-27T08:22:43.140Z,33.50
2023-02-27T08:23:43.161Z,33.39
2023-02-27T08:24:43.128Z,34.89
2023-02-27T08:25:43.125Z,33.18
2023-02-27T08:26:43.120Z,32.78
2023-02-27T08:27:43.113Z,32.58
2023-02-27T08:28:43.099Z,31.56
2023-02-27T08:29:43.128Z,32.67
2023-02-27T08:30:43.113Z,33.97
2023-02-27T08:31:43.183Z,32.15
2023-02-27T08:32:43.076Z,31.33
2023-02-27T08:33:43.062Z,31.45
2023-02-27T08:34:43.069Z,32.24
2023-02-27T08:35:43.062Z,31.93
2023-02-27T08:36:43.038Z,32.84
2023-02-27T08:37:43.039Z,30.46
2023-02-27T08:38:43.039Z,31.76
2023-02-27T08:39:43.032Z,31.17
2023-02-27T08:40:43.039Z,32.78
2023-02-27T08:41:43.018Z,30.97
2023-02-27T08:42:43.014Z,30.28
2023-02-27T08:43:42.992Z,31.20
2023-02-27T08:44:42.984Z,31.02
2023-02-27T08:45:43.150Z,31.92
2023-02-27T08:46:42.987Z,32.50
2023-02-27T08:47:42.965Z,31.27
2023-02-27T08:48:42.951Z,30.68
2023-02-27T08:49:42.950Z,32.78
2023-02-27T08:50:42.947Z,32.88
2023-02-27T08:51:42.942Z,31.24
2023-02-27T08:52:42.957Z,30.44
2023-02-27T08:53:42.929Z,30.22
2023-02-27T08:54:42.904Z,30.21
2023-02-27T08:55:42.909Z,31.41
2023-02-27T08:56:42.912Z,31.20
2023-02-27T08:57:42.901Z,29.99
2023-02-27T08:58:42.912Z,31.21
2023-02-27T08:59:42.894Z,30.61
2023-02-27T09:00:42.910Z,29.81
2023-02-27T09:01:42.879Z,30.30
2023-02-27T09:02:42.931Z,29.81
2023-02-27T09:03:42.878Z,30.71
2023-02-27T09:04:42.897Z,31.21
2023-02-27T09:05:42.869Z,30.80
2023-02-27T09:06:42.841Z,30.98
2023-02-27T09:07:42.837Z,30.87
2023-02-27T09:08:42.823Z,30.15
2023-02-27T09:09:42.837Z,29.45
2023-02-27T09:10:42.834Z,29.93
2023-02-27T09:11:42.811Z,29.43
2023-02-27T09:12:42.808Z,30.35
2023-02-27T09:13:42.824Z,29.35
2023-02-27T09:14:42.821Z,29.15
2023-02-27T09:15:42.786Z,29.27
2023-02-27T09:16:42.823Z,30.16
2023-02-27T09:17:42.780Z,29.36
2023-02-27T09:18:42.781Z,30.55
2023-02-27T09:19:42.757Z,30.52
2023-02-27T09:20:42.758Z,29.41
2023-02-27T09:21:42.752Z,28.89
2023-02-27T09:22:42.747Z,27.89
2023-02-27T09:23:43.742Z,29.00
2023-02-27T09:24:42.746Z,28.19
2023-02-27T09:25:42.738Z,26.73
2023-02-27T09:26:46.316Z,28.71
2023-02-27T09:27:43.713Z,26.31
2023-02-27T09:28:42.717Z,28.61
2023-02-27T09:29:42.690Z,28.78
2023-02-27T09:30:42.707Z,26.58
2023-02-27T09:31:42.743Z,25.23
2023-02-27T09:32:42.732Z,28.08
2023-02-27T09:33:42.689Z,30.16
2023-02-27T09:34:42.648Z,29.34
2023-02-27T09:35:42.699Z,27.71
2023-02-27T09:36:42.663Z,27.89
2023-02-27T09:37:42.649Z,27.08
2023-02-27T09:38:42.654Z,26.20
2023-02-27T09:39:44.032Z,28.27
2023-02-27T09:40:42.638Z,26.96
2023-02-27T09:41:42.611Z,26.14
2023-02-27T09:42:42.648Z,25.92
2023-02-27T09:43:42.596Z,26.03
2023-02-27T09:44:47.317Z,23.79
2023-02-27T09:45:44.711Z,28.11
2023-02-27T09:46:42.577Z,27.89
2023-02-27T09:47:42.582Z,25.98
2023-02-27T09:48:42.566Z,26.37
2023-02-27T09:49:42.557Z,25.07
2023-02-27T09:50:42.564Z,26.45
2023-02-27T09:51:42.538Z,25.93
2023-02-27T09:52:42.529Z,26.53
2023-02-27T09:53:42.529Z,25.22
2023-02-27T09:54:44.568Z,27.50
2023-02-27T09:55:42.553Z,24.80
2023-02-27T09:56:42.517Z,26.29
2023-02-27T09:57:42.511Z,25.20
2023-02-27T09:58:42.503Z,24.60
2023-02-27T09:59:42.500Z,24.19
2023-02-27T10:00:42.493Z,23.80
2023-02-27T10:01:42.486Z,25.90
2023-02-27T10:02:42.517Z,23.79
2023-02-27T10:03:42.465Z,24.41
2023-02-27T10:04:42.480Z,24.93
2023-02-27T10:05:42.466Z,24.63
2023-02-27T10:06:42.473Z,24.25
2023-02-27T10:07:42.440Z,25.86
2023-02-27T10:08:42.453Z,25.73
2023-02-27T10:09:42.445Z,26.31
2023-02-27T10:10:42.422Z,25.18
2023-02-27T10:11:42.419Z,22.50
2023-02-27T10:12:42.452Z,23.99
2023-02-27T10:13:42.426Z,26.68
2023-02-27T10:14:42.402Z,23.38
2023-02-27T10:15:42.407Z,24.35
2023-02-27T10:16:42.493Z,24.74
2023-02-27T10:17:42.392Z,23.44
2023-02-27T10:18:42.376Z,22.55
2023-02-27T10:19:42.367Z,23.93
2023-02-27T10:20:42.376Z,22.85
2023-02-27T10:21:42.362Z,23.23
2023-02-27T10:22:42.370Z,23.93
2023-02-27T10:23:42.353Z,23.60
2023-02-27T10:24:42.344Z,22.89
2023-02-27T10:25:42.349Z,24.08
2023-02-27T10:26:42.360Z,23.00
2023-02-27T10:27:42.326Z,23.39
2023-02-27T10:28:42.321Z,22.78
2023-02-27T10:29:42.357Z,22.19
2023-02-27T10:30:42.362Z,22.58
2023-02-27T10:31:42.337Z,21.21
2023-02-27T10:32:42.313Z,22.22
2023-02-27T10:33:42.314Z,23.22
2023-02-27T10:34:42.289Z,22.71
2023-02-27T10:35:42.435Z,22.03
2023-02-27T10:36:42.282Z,22.42
2023-02-27T10:37:42.298Z,22.52
2023-02-27T10:38:42.256Z,22.03
2023-02-27T10:39:42.255Z,22.26
2023-02-27T10:40:42.259Z,23.46
2023-02-27T10:41:42.250Z,22.95
2023-02-27T10:42:43.291Z,21.85
2023-02-27T10:43:42.230Z,20.37
2023-02-27T10:44:42.231Z,22.33
2023-02-27T10:45:42.223Z,26.14
2023-02-27T10:46:42.255Z,26.07
2023-02-27T10:47:42.208Z,24.04
2023-02-27T10:48:42.215Z,23.61
2023-02-27T10:49:42.203Z,24.48
2023-02-27T10:50:42.191Z,22.75
2023-02-27T10:51:42.268Z,22.53
2023-02-27T10:52:43.234Z,22.14
2023-02-27T10:53:43.171Z,22.44
2023-02-27T10:54:42.178Z,21.85
2023-02-27T10:55:42.169Z,22.16
2023-02-27T10:56:42.161Z,22.53
2023-02-27T10:57:42.184Z,22.03
2023-02-27T10:58:42.139Z,21.51
2023-02-27T10:59:42.145Z,20.33
2023-02-27T11:00:42.137Z,20.73
2023-02-27T11:01:42.213Z,21.73
2023-02-27T11:02:42.148Z,22.03
2023-02-27T11:03:42.144Z,22.03
2023-02-27T11:04:42.160Z,21.53
2023-02-27T11:05:42.115Z,21.32
2023-02-27T11:06:42.156Z,20.43
2023-02-27T11:07:42.103Z,20.89
2023-02-27T11:08:42.084Z,20.68
2023-02-27T11:09:42.084Z,20.29
2023-02-27T11:10:42.083Z,20.68
2023-02-27T11:11:42.115Z,20.59
2023-02-27T11:12:42.058Z,21.48
2023-02-27T11:13:42.082Z,21.09
2023-02-27T11:14:42.051Z,20.60
2023-02-27T11:15:42.063Z,20.00
2023-02-27T11:16:42.076Z,20.41
2023-02-27T11:17:42.029Z,20.78
2023-02-27T11:18:42.030Z,19.81
2023-02-27T11:19:42.041Z,20.70
2023-02-27T11:20:42.025Z,21.48
2023-02-27T11:21:42.015Z,19.21
2023-02-27T11:22:42.013Z,21.19
2023-02-27T11:23:42.000Z,20.31
2023-02-27T11:24:42.011Z,20.62
2023-02-27T11:25:41.998Z,21.13
2023-02-27T11:26:42.023Z,21.33
2023-02-27T11:27:41.997Z,20.94
2023-02-27T11:28:41.985Z,21.75
2023-02-27T11:29:41.970Z,22.25
2023-02-27T11:30:41.975Z,21.36
2023-02-27T11:31:42.000Z,22.22
2023-02-27T11:32:41.976Z,22.32
2023-02-27T11:33:41.955Z,22.12
2023-02-27T11:34:41.962Z,23.28
2023-02-27T11:35:41.988Z,22.86
2023-02-27T11:36:41.948Z,22.07
2023-02-27T11:37:42.008Z,22.14
2023-02-27T11:38:41.939Z,21.46
2023-02-27T11:39:41.928Z,21.83
2023-02-27T11:40:41.935Z,22.20
2023-02-27T11:41:41.925Z,20.40
2023-02-27T11:42:41.963Z,20.50
2023-02-27T11:43:41.923Z,20.11
2023-02-27T11:44:50.834Z,20.01
2023-02-27T11:46:05.090Z,20.24
2023-02-27T11:46:47.812Z,20.84
2023-02-27T11:47:42.921Z,20.54
2023-02-27T11:48:41.885Z,21.92
2023-02-27T11:49:41.880Z,21.64
2023-02-27T11:50:41.876Z,20.84
2023-02-27T11:51:41.874Z,21.42
2023-02-27T11:52:41.869Z,20.61
2023-02-27T11:53:41.922Z,20.79
2023-02-27T11:54:41.879Z,21.08
2023-02-27T11:55:41.849Z,20.78
2023-02-27T11:56:41.848Z,20.97
2023-02-27T11:57:41.836Z,18.99
2023-02-27T11:58:41.857Z,19.68
2023-02-27T11:59:41.866Z,20.17
2023-02-27T12:00:41.831Z,19.78
2023-02-27T12:01:41.821Z,19.92
2023-02-27T12:02:41.833Z,20.35
2023-02-27T12:03:41.814Z,20.25
2023-02-27T12:04:41.808Z,19.97
2023-02-27T12:05:41.819Z,20.78
2023-02-27T12:06:41.792Z,21.63
2023-02-27T12:07:41.786Z,23.56
2023-02-27T12:08:41.789Z,22.44
2023-02-27T12:09:41.810Z,22.16
2023-02-27T12:10:41.814Z,22.17
2023-02-27T12:11:41.772Z,23.10
2023-02-27T12:12:41.756Z,23.46
2023-02-27T12:13:41.762Z,22.83
2023-02-27T12:14:41.799Z,22.72
2023-02-27T12:15:41.759Z,22.29
2023-02-27T12:16:41.831Z,22.47
2023-02-27T12:17:41.729Z,22.25
2023-02-27T12:18:41.733Z,21.82
2023-02-27T12:19:42.724Z,20.23
2023-02-27T12:20:41.728Z,21.72
2023-02-27T12:21:41.745Z,19.87
2023-02-27T12:22:41.803Z,21.09
2023-02-27T12:23:41.698Z,21.16
2023-02-27T12:24:41.716Z,21.58
2023-02-27T12:25:41.718Z,22.28
2023-02-27T12:26:41.678Z,21.86
2023-02-27T12:27:43.660Z,22.03
2023-02-27T12:28:42.686Z,21.32
2023-02-27T12:29:41.662Z,20.37
2023-02-27T12:30:41.678Z,21.66
2023-02-27T12:31:41.690Z,23.63
2023-02-27T12:32:41.663Z,23.88
2023-02-27T12:33:41.625Z,26.15
2023-02-27T12:34:41.632Z,27.10
2023-02-27T12:35:41.673Z,27.83
2023-02-27T12:36:41.640Z,28.77
2023-02-27T12:37:41.607Z,29.83
2023-02-27T12:38:41.604Z,30.16
2023-02-27T12:39:41.600Z,30.77
2023-02-27T12:40:41.595Z,30.71
2023-02-27T12:41:41.637Z,30.62
2023-02-27T12:42:41.603Z,29.92
2023-02-27T12:43:41.571Z,28.55
2023-02-27T12:44:41.572Z,26.67
2023-02-27T12:45:41.577Z,25.11
2023-02-27T12:46:41.554Z,23.19
2023-02-27T12:47:41.570Z,23.77
2023-02-27T12:48:41.542Z,23.28
2023-02-27T12:49:41.539Z,23.36
2023-02-27T12:50:41.526Z,25.04
2023-02-27T12:51:41.530Z,25.48
2023-02-27T12:52:41.551Z,26.81